Station Historical Data
Daily Summary for January 11, 2017 Units:  Metric    English   Both
Next Day »
Daily Weekly Monthly Yearly Custom
  High: Low: Average:
Temperature: 6.6 °C 2.2 °C 4.6 °C
Dew Point: 6.2 °C 1.6 °C 4.2 °C
Humidity: 97% 96% 97%
Wind Speed: 37km/h 0km/h 9km/h
Wind Gust: 48.3km/h - -
Wind- - SSW
Pressure: 1015.1 hPa 1006 hPa -
Precipitation: 0 mm    
Historical Graphs
 
 
Tabular Data for January 11, 2017
Time Temperature Dew Point Pressure Wind Wind Speed Wind Gust Humidity Rainfall Rate (Hourly) solar Conditions
00:03 6.6 °C 6.2 °C 1006.3 hPa SW 1.6 km/h 38.6 km/h 97% 1.02 mm 0.00 W/m2
00:08 6.6 °C 6.1 °C 1006.3 hPa SSW 20.9 km/h 29 km/h 97% 0 mm 0.00 W/m2
00:13 6.6 °C 6.1 °C 1006 hPa SSE 24.1 km/h 25.7 km/h 97% 11.18 mm 0.00 W/m2
00:18 6.5 °C 6.1 °C 1006 hPa SSW 29 km/h 33.8 km/h 97% 8.64 mm 0.00 W/m2
00:23 6.5 °C 6.1 °C 1006 hPa SSW 16.1 km/h 30.6 km/h 97% 6.86 mm 0.00 W/m2
00:28 6.5 °C 6.1 °C 1006 hPa SSW 16.1 km/h 38.6 km/h 97% 6.86 mm 0.00 W/m2
00:33 6.4 °C 6 °C 1006.3 hPa Calm   33.8 km/h 97% 7.62 mm 0.00 W/m2
00:38 6.3 °C 5.9 °C 1006 hPa SW 33.8 km/h 48.3 km/h 97% 5.59 mm 0.00 W/m2
00:43 6.3 °C 5.8 °C 1006 hPa SSW 17.7 km/h 46.7 km/h 97% 5.33 mm 0.00 W/m2
00:48 6.2 °C 5.8 °C 1006.7 hPa SSW 12.9 km/h 35.4 km/h 97% 13.72 mm 0.00 W/m2
00:53 6.1 °C 5.6 °C 1006.3 hPa SW 11.3 km/h 27.4 km/h 97% 29.97 mm 0.00 W/m2
00:58 5.5 °C 5.1 °C 1006.7 hPa West 8 km/h 33.8 km/h 97% 26.92 mm 0.00 W/m2
01:03 5.1 °C 4.6 °C 1007 hPa WSW 14.5 km/h 33.8 km/h 97% 4.83 mm 0.00 W/m2
01:08 4.7 °C 4.2 °C 1007.3 hPa WSW 17.7 km/h 37 km/h 96% 2.03 mm 0.00 W/m2
01:13 4.8 °C 4.3 °C 1007.3 hPa SSW 25.7 km/h 33.8 km/h 96% 2.03 mm 0.00 W/m2
01:18 5.2 °C 4.6 °C 1007.7 hPa West 20.9 km/h 25.7 km/h 96% 1.52 mm 0.00 W/m2
01:23 5.4 °C 5 °C 1007.7 hPa West 12.9 km/h 35.4 km/h 97% 1.02 mm 0.00 W/m2
01:28 5.6 °C 5.2 °C 1008 hPa WSW 27.4 km/h 33.8 km/h 97% 0 mm 0.00 W/m2
01:33 5.8 °C 5.3 °C 1008 hPa WSW 30.6 km/h 38.6 km/h 97% 0 mm 0.00 W/m2
01:44 5.8 °C 5.4 °C 1008.4 hPa SW 32.2 km/h 33.8 km/h 97% 0 mm 0.00 W/m2
01:49 5.8 °C 5.4 °C 1008.4 hPa Calm   30.6 km/h 97% 0 mm 0.00 W/m2
01:54 5.8 °C 5.4 °C 1008.4 hPa SSW 1.6 km/h 37 km/h 97% 0 mm 0.00 W/m2
01:59 5.8 °C 5.3 °C 1008.4 hPa South 37 km/h 40.2 km/h 97% 0 mm 0.00 W/m2
02:04 5.7 °C 5.3 °C 1008.4 hPa Calm   41.8 km/h 97% 0 mm 0.00 W/m2
02:09 5.7 °C 5.3 °C 1008.4 hPa SW 16.1 km/h 37 km/h 97% 0 mm 0.00 W/m2
02:14 5.7 °C 5.2 °C 1008.4 hPa WSW 1.6 km/h 24.1 km/h 97% 0 mm 0.00 W/m2
02:19 5.7 °C 5.3 °C 1008.4 hPa SSW 12.9 km/h 38.6 km/h 97% 0 mm 0.00 W/m2
02:24 5.7 °C 5.2 °C 1008.7 hPa South 29 km/h 38.6 km/h 97% 0 mm 0.00 W/m2
02:29 5.7 °C 5.2 °C 1008.7 hPa SW 9.7 km/h 33.8 km/h 97% 0 mm 0.00 W/m2
02:34 5.7 °C 5.2 °C 1008.7 hPa Calm   29 km/h 97% 0 mm 0.00 W/m2
02:39 5.7 °C 5.2 °C 1009 hPa South 8 km/h 32.2 km/h 97% 0 mm 0.00 W/m2
02:44 5.6 °C 5.2 °C 1009 hPa SW 9.7 km/h 29 km/h 97% 0 mm 0.00 W/m2
02:49 5.6 °C 5.2 °C 1009 hPa SSW 17.7 km/h 32.2 km/h 97% 0 mm 0.00 W/m2
02:54 5.6 °C 5.2 °C 1009 hPa SW 9.7 km/h 33.8 km/h 97% 0 mm 0.00 W/m2
02:59 5.6 °C 5.1 °C 1009 hPa SSW 11.3 km/h 37 km/h 97% 0 mm 0.00 W/m2
03:04 5.6 °C 5.1 °C 1009 hPa SW 12.9 km/h 29 km/h 97% 0 mm 0.00 W/m2
03:09 5.6 °C 5.1 °C 1009 hPa SSW 9.7 km/h 37 km/h 97% 0 mm 0.00 W/m2
03:14 5.6 °C 5.1 °C 1009.4 hPa SSW 14.5 km/h 33.8 km/h 97% 0 mm 0.00 W/m2
03:19 5.6 °C 5.1 °C 1009.4 hPa SSW 19.3 km/h 27.4 km/h 97% 0 mm 0.00 W/m2
03:24 5.6 °C 5.1 °C 1009.4 hPa Calm   30.6 km/h 97% 0 mm 0.00 W/m2
03:29 5.6 °C 5.1 °C 1009.4 hPa WSW 16.1 km/h 24.1 km/h 97% 0 mm 0.00 W/m2
03:34 5.6 °C 5.1 °C 1009.4 hPa South 22.5 km/h 25.7 km/h 97% 4.57 mm 0.00 W/m2
03:39 5.6 °C 5.1 °C 1009.4 hPa SSW 16.1 km/h 22.5 km/h 97% 3.05 mm 0.00 W/m2
03:44 5.5 °C 5.1 °C 1009.4 hPa SSW 22.5 km/h 24.1 km/h 97% 1.78 mm 0.00 W/m2
03:49 5.5 °C 5.1 °C 1009.4 hPa SSW 19.3 km/h 24.1 km/h 97% 1.78 mm 0.00 W/m2
03:54 5.4 °C 5 °C 1009.4 hPa SSE 12.9 km/h 38.6 km/h 97% 2.03 mm 0.00 W/m2
03:59 5.4 °C 5 °C 1009.4 hPa SSW 8 km/h 24.1 km/h 97% 1.52 mm 0.00 W/m2
04:04 5.4 °C 4.9 °C 1009.4 hPa SSW 12.9 km/h 29 km/h 97% 1.02 mm 0.00 W/m2
04:09 5.4 °C 4.9 °C 1009.7 hPa SW 14.5 km/h 29 km/h 97% 0 mm 0.00 W/m2
04:14 5.3 °C 4.9 °C 1009.4 hPa SSW 3.2 km/h 14.5 km/h 97% 0 mm 0.00 W/m2
04:19 5.4 °C 4.9 °C 1009.4 hPa SSW 8 km/h 16.1 km/h 97% 0 mm 0.00 W/m2
04:24 5.4 °C 4.9 °C 1009.4 hPa South 24.1 km/h 24.1 km/h 97% 0 mm 0.00 W/m2
04:29 5.4 °C 4.9 °C 1009.4 hPa South 6.4 km/h 24.1 km/h 97% 0 mm 0.00 W/m2
04:34 5.4 °C 4.9 °C 1009.4 hPa SSW 9.7 km/h 30.6 km/h 97% 0 mm 0.00 W/m2
04:39 5.4 °C 4.9 °C 1009.4 hPa South 17.7 km/h 29 km/h 97% 0 mm 0.00 W/m2
04:44 5.4 °C 4.9 °C 1009.4 hPa SSW 3.2 km/h 22.5 km/h 97% 0 mm 0.00 W/m2
04:49 5.4 °C 4.9 °C 1009.4 hPa Calm   17.7 km/h 97% 0 mm 0.00 W/m2
04:53 5.4 °C 4.9 °C 1009.4 hPa SSW 12.9 km/h 17.7 km/h 97% 0 mm 0.00 W/m2
04:58 5.4 °C 5 °C 1009.4 hPa WSW 14.5 km/h 30.6 km/h 97% 0 mm 0.00 W/m2
05:03 5.4 °C 5 °C 1009.4 hPa SSW 8 km/h 19.3 km/h 97% 0 mm 0.00 W/m2
05:08 5.4 °C 5 °C 1009.4 hPa SSW 12.9 km/h 19.3 km/h 97% 0 mm 0.00 W/m2
05:13 5.4 °C 5 °C 1009.4 hPa SSW 6.4 km/h 19.3 km/h 97% 0 mm 0.00 W/m2
05:18 5.4 °C 5 °C 1009.4 hPa SW 8 km/h 19.3 km/h 97% 0 mm 0.00 W/m2
05:23 5.4 °C 5 °C 1009.4 hPa WSW 14.5 km/h 14.5 km/h 97% 0 mm 0.00 W/m2
05:28 5.4 °C 5 °C 1009.4 hPa Calm   22.5 km/h 97% 0 mm 0.00 W/m2
05:33 5.4 °C 5 °C 1009.4 hPa SW 12.9 km/h 14.5 km/h 97% 2.03 mm 0.00 W/m2
05:38 5.4 °C 4.9 °C 1009.4 hPa SSW 14.5 km/h 22.5 km/h 97% 1.78 mm 0.00 W/m2
05:43 5.4 °C 4.9 °C 1009.4 hPa Calm   16.1 km/h 97% 1.27 mm 0.00 W/m2
05:48 5.4 °C 4.9 °C 1009.7 hPa SW 19.3 km/h 25.7 km/h 97% 5.08 mm 0.00 W/m2
05:53 5.3 °C 4.9 °C 1009.7 hPa SW 20.9 km/h 29 km/h 97% 2.29 mm 0.00 W/m2
05:58 5.3 °C 4.8 °C 1010 hPa Calm   17.7 km/h 97% 1.27 mm 0.00 W/m2
06:03 5.3 °C 4.8 °C 1010 hPa SW 12.9 km/h 17.7 km/h 97% 1.02 mm 0.00 W/m2
06:08 5.2 °C 4.8 °C 1010 hPa SSW 8 km/h 11.3 km/h 97% 0 mm 0.00 W/m2
06:13 5.2 °C 4.7 °C 1010 hPa SSW 17.7 km/h 20.9 km/h 97% 0 mm 0.00 W/m2
06:18 5.2 °C 4.7 °C 1010 hPa SW 16.1 km/h 27.4 km/h 97% 0 mm 0.00 W/m2
06:23 5.2 °C 4.7 °C 1010 hPa WSW 12.9 km/h 22.5 km/h 97% 0 mm 0.00 W/m2
06:28 5.1 °C 4.7 °C 1010 hPa SW 8 km/h 17.7 km/h 97% 0 mm 0.00 W/m2
06:33 5.2 °C 4.7 °C 1010.4 hPa SW 9.7 km/h 25.7 km/h 97% 0 mm 0.00 W/m2
06:38 5.1 °C 4.7 °C 1010.4 hPa SW 9.7 km/h 19.3 km/h 97% 0 mm 0.00 W/m2
06:43 5.2 °C 4.7 °C 1010.4 hPa SW 19.3 km/h 24.1 km/h 97% 0 mm 0.00 W/m2
06:48 5.2 °C 4.7 °C 1010.4 hPa SSW 19.3 km/h 19.3 km/h 97% 0 mm 0.00 W/m2
06:53 5.1 °C 4.7 °C 1010.4 hPa SW 14.5 km/h 20.9 km/h 97% 0 mm 0.00 W/m2
06:58 5.1 °C 4.7 °C 1010.7 hPa WSW 11.3 km/h 22.5 km/h 97% 0 mm 0.00 W/m2
07:03 5.1 °C 4.6 °C 1010.7 hPa SSW 20.9 km/h 22.5 km/h 97% 0 mm 0.00 W/m2
07:08 5 °C 4.6 °C 1010.7 hPa Calm   11.3 km/h 97% 0 mm 0.00 W/m2
07:13 4.9 °C 4.5 °C 1010.7 hPa SW 6.4 km/h 19.3 km/h 97% 0 mm 0.00 W/m2
07:18 5 °C 4.6 °C 1010.7 hPa Calm   20.9 km/h 97% 0 mm 0.00 W/m2
07:23 4.9 °C 4.5 °C 1010.7 hPa SSW 6.4 km/h 12.9 km/h 97% 0 mm 0.00 W/m2
07:28 4.9 °C 4.5 °C 1011.1 hPa SSE 9.7 km/h 16.1 km/h 97% 0 mm 0.00 W/m2
07:33 5 °C 4.6 °C 1010.7 hPa SW 14.5 km/h 19.3 km/h 97% 0 mm 0.00 W/m2
07:34 5 °C 4.6 °C 1010.7 hPa South 9.7 km/h 19.3 km/h 97% 0 mm 0.00 W/m2
07:39 5 °C 4.6 °C 1010.7 hPa SSW 14.5 km/h 20.9 km/h 97% 0 mm 0.00 W/m2
07:45 4.9 °C 4.5 °C 1011.1 hPa SSE 20.9 km/h 29 km/h 97% 0 mm 5.00 W/m2
07:50 4.9 °C 4.5 °C 1011.1 hPa South 8 km/h 22.5 km/h 97% 0 mm 5.00 W/m2
07:55 4.9 °C 4.4 °C 1011.1 hPa SSW 12.9 km/h 25.7 km/h 97% 0 mm 16.00 W/m2
08:00 4.8 °C 4.4 °C 1011.1 hPa SSW 8 km/h 24.1 km/h 97% 0 mm 9.00 W/m2
08:05 4.8 °C 4.4 °C 1011.1 hPa South 6.4 km/h 22.5 km/h 97% 0 mm 7.00 W/m2
08:10 4.8 °C 4.4 °C 1011.4 hPa Calm   22.5 km/h 97% 0 mm 11.00 W/m2
08:15 4.8 °C 4.3 °C 1011.4 hPa SW 14.5 km/h 20.9 km/h 97% 0 mm 25.00 W/m2
08:20 4.7 °C 4.3 °C 1011.4 hPa SSW 11.3 km/h 17.7 km/h 97% 0 mm 26.00 W/m2
08:25 4.7 °C 4.2 °C 1011.4 hPa SW 12.9 km/h 17.7 km/h 97% 0 mm 33.00 W/m2
08:30 4.6 °C 4.2 °C 1011.7 hPa WSW 17.7 km/h 17.7 km/h 97% 0 mm 25.00 W/m2
08:35 4.6 °C 4.1 °C 1011.7 hPa Calm   14.5 km/h 97% 0 mm 25.00 W/m2
08:40 4.6 °C 4.1 °C 1011.7 hPa WSW 8 km/h 19.3 km/h 97% 0 mm 23.00 W/m2
08:45 4.6 °C 4.1 °C 1011.7 hPa Calm   19.3 km/h 97% 1.02 mm 11.00 W/m2
08:50 4.6 °C 4.1 °C 1011.7 hPa SSW 30.6 km/h 32.2 km/h 97% 2.29 mm 28.00 W/m2
08:55 4.6 °C 4.1 °C 1012.1 hPa WSW 24.1 km/h 24.1 km/h 97% 2.03 mm 28.00 W/m2
09:00 4.6 °C 4.2 °C 1012.1 hPa SW 9.7 km/h 24.1 km/h 97% 2.03 mm 39.00 W/m2
09:05 4.6 °C 4.2 °C 1012.1 hPa SW 9.7 km/h 25.7 km/h 97% 3.3 mm 39.00 W/m2
09:10 4.6 °C 4.2 °C 1012.1 hPa SW 11.3 km/h 20.9 km/h 97% 1.52 mm 25.00 W/m2
09:15 4.7 °C 4.2 °C 1012.1 hPa SW 9.7 km/h 22.5 km/h 97% 1.02 mm 37.00 W/m2
09:20 4.7 °C 4.3 °C 1012.1 hPa SSE 17.7 km/h 22.5 km/h 97% 0 mm 39.00 W/m2
09:25 4.8 °C 4.3 °C 1012.1 hPa South 11.3 km/h 24.1 km/h 97% 0 mm 42.00 W/m2
09:30 4.8 °C 4.3 °C 1012.1 hPa SSW 6.4 km/h 19.3 km/h 97% 0 mm 30.00 W/m2
09:35 4.8 °C 4.4 °C 1012.4 hPa SW 12.9 km/h 24.1 km/h 97% 0 mm 100.00 W/m2
09:40 4.8 °C 4.4 °C 1012.4 hPa South 16.1 km/h 25.7 km/h 97% 0 mm 158.00 W/m2
09:45 4.8 °C 4.4 °C 1012.8 hPa Calm   19.3 km/h 97% 0 mm 60.00 W/m2
09:50 4.9 °C 4.4 °C 1012.8 hPa South 19.3 km/h 20.9 km/h 97% 0 mm 77.00 W/m2
09:55 4.9 °C 4.5 °C 1012.8 hPa SSW 12.9 km/h 25.7 km/h 97% 0 mm 91.00 W/m2
10:00 4.9 °C 4.5 °C 1012.8 hPa SSW 8 km/h 17.7 km/h 97% 0 mm 63.00 W/m2
10:05 4.9 °C 4.5 °C 1012.8 hPa SSW 8 km/h 19.3 km/h 97% 0 mm 54.00 W/m2
10:10 4.9 °C 4.5 °C 1012.8 hPa SSW 8 km/h 17.7 km/h 97% 0 mm 74.00 W/m2
10:15 4.9 °C 4.5 °C 1013.1 hPa SSW 11.3 km/h 27.4 km/h 97% 0 mm 47.00 W/m2
10:20 4.9 °C 4.5 °C 1013.1 hPa South 16.1 km/h 29 km/h 97% 0 mm 174.00 W/m2
10:25 5 °C 4.6 °C 1013.1 hPa SW 11.3 km/h 22.5 km/h 97% 0 mm 91.00 W/m2
10:30 5.1 °C 4.6 °C 1013.1 hPa SW 12.9 km/h 24.1 km/h 97% 0 mm 113.00 W/m2
10:35 5.1 °C 4.6 °C 1013.1 hPa SW 16.1 km/h 19.3 km/h 97% 0 mm 74.00 W/m2
10:40 5.1 °C 4.7 °C 1013.4 hPa Calm   17.7 km/h 97% 0 mm 100.00 W/m2
10:45 5.2 °C 4.7 °C 1013.4 hPa SSW 8 km/h 30.6 km/h 97% 0 mm 167.00 W/m2
10:50 5.2 °C 4.7 °C 1013.4 hPa SW 19.3 km/h 25.7 km/h 97% 0 mm 149.00 W/m2
10:55 5.2 °C 4.7 °C 1013.4 hPa SW 14.5 km/h 33.8 km/h 97% 0 mm 84.00 W/m2
11:00 5.1 °C 4.7 °C 1013.4 hPa SW 14.5 km/h 27.4 km/h 97% 0 mm 70.00 W/m2
11:05 5.1 °C 4.6 °C 1013.8 hPa SW 12.9 km/h 32.2 km/h 97% 0 mm 90.00 W/m2
11:10 4.9 °C 4.5 °C 1013.8 hPa SSW 6.4 km/h 22.5 km/h 97% 0 mm 125.00 W/m2
11:15 4.8 °C 4.4 °C 1013.4 hPa South 24.1 km/h 25.7 km/h 97% 0 mm 144.00 W/m2
11:20 4.8 °C 4.4 °C 1013.4 hPa Calm   32.2 km/h 97% 0 mm 139.00 W/m2
11:25 4.8 °C 4.4 °C 1013.4 hPa South 8 km/h 32.2 km/h 97% 0 mm 132.00 W/m2
11:30 4.8 °C 4.4 °C 1013.4 hPa SW 16.1 km/h 30.6 km/h 97% 0 mm 176.00 W/m2
11:36 4.8 °C 4.3 °C 1013.4 hPa South 1.6 km/h 24.1 km/h 97% 0 mm 176.00 W/m2
11:41 4.8 °C 4.3 °C 1013.4 hPa SW 14.5 km/h 20.9 km/h 97% 0 mm 67.00 W/m2
11:46 4.8 °C 4.3 °C 1013.4 hPa South 8 km/h 25.7 km/h 97% 0 mm 135.00 W/m2
11:51 4.8 °C 4.3 °C 1013.4 hPa SSW 14.5 km/h 29 km/h 97% 0 mm 156.00 W/m2
11:56 4.8 °C 4.3 °C 1013.4 hPa SW 9.7 km/h 19.3 km/h 97% 0 mm 98.00 W/m2
12:01 4.8 °C 4.3 °C 1013.4 hPa SW 12.9 km/h 22.5 km/h 97% 0 mm 121.00 W/m2
12:06 4.8 °C 4.3 °C 1013.8 hPa South 6.4 km/h 22.5 km/h 97% 3.56 mm 116.00 W/m2
12:11 4.7 °C 4.3 °C 1013.8 hPa SW 11.3 km/h 22.5 km/h 97% 1.52 mm 165.00 W/m2
12:16 4.7 °C 4.3 °C 1013.8 hPa SSW 19.3 km/h 27.4 km/h 97% 1.02 mm 113.00 W/m2
12:21 4.7 °C 4.3 °C 1013.4 hPa SSW 14.5 km/h 22.5 km/h 97% 0 mm 109.00 W/m2
12:26 4.7 °C 4.2 °C 1013.8 hPa West 16.1 km/h 24.1 km/h 97% 0 mm 88.00 W/m2
12:31 4.7 °C 4.2 °C 1013.8 hPa SW 11.3 km/h 20.9 km/h 97% 3.56 mm 214.00 W/m2
12:36 4.7 °C 4.2 °C 1013.8 hPa SW 6.4 km/h 12.9 km/h 97% 2.54 mm 197.00 W/m2
12:41 4.7 °C 4.3 °C 1013.8 hPa SW 16.1 km/h 16.1 km/h 97% 1.27 mm 139.00 W/m2
12:46 4.8 °C 4.3 °C 1013.8 hPa South 8 km/h 24.1 km/h 97% 1.02 mm 118.00 W/m2
12:51 4.8 °C 4.4 °C 1013.8 hPa South 9.7 km/h 24.1 km/h 97% 0 mm 225.00 W/m2
12:56 4.9 °C 4.5 °C 1013.8 hPa Calm   16.1 km/h 97% 0 mm 221.00 W/m2
13:01 5 °C 4.6 °C 1013.4 hPa SW 6.4 km/h 20.9 km/h 97% 0 mm 443.00 W/m2
13:06 5.1 °C 4.6 °C 1013.4 hPa SW 3.2 km/h 17.7 km/h 97% 0 mm 121.00 W/m2
13:11 5.1 °C 4.7 °C 1013.4 hPa SW 11.3 km/h 17.7 km/h 97% 0 mm 121.00 W/m2
13:16 5.1 °C 4.7 °C 1013.4 hPa SSW 9.7 km/h 17.7 km/h 97% 0 mm 127.00 W/m2
13:21 5.1 °C 4.6 °C 1013.8 hPa Calm   16.1 km/h 97% 0 mm 113.00 W/m2
13:26 5.1 °C 4.6 °C 1013.4 hPa SSW 9.7 km/h 22.5 km/h 97% 0 mm 192.00 W/m2
13:31 5.1 °C 4.6 °C 1013.4 hPa South 4.8 km/h 20.9 km/h 97% 0 mm 142.00 W/m2
13:36 5.1 °C 4.6 °C 1013.4 hPa SSW 17.7 km/h 19.3 km/h 97% 0 mm 153.00 W/m2
13:41 5.1 °C 4.6 °C 1013.4 hPa SSW 6.4 km/h 22.5 km/h 97% 0 mm 193.00 W/m2
13:46 5 °C 4.6 °C 1013.4 hPa SSW 4.8 km/h 19.3 km/h 97% 0 mm 160.00 W/m2
13:51 4.9 °C 4.5 °C 1013.8 hPa SW 3.2 km/h 20.9 km/h 97% 0 mm 167.00 W/m2
13:56 4.9 °C 4.4 °C 1013.8 hPa SW 4.8 km/h 24.1 km/h 97% 0 mm 128.00 W/m2
14:01 4.9 °C 4.4 °C 1013.8 hPa SSW 6.4 km/h 16.1 km/h 97% 0 mm 146.00 W/m2
14:06 4.9 °C 4.4 °C 1013.8 hPa South 12.9 km/h 17.7 km/h 97% 0 mm 104.00 W/m2
14:11 4.8 °C 4.4 °C 1013.8 hPa SW 9.7 km/h 9.7 km/h 97% 0 mm 65.00 W/m2
14:16 4.8 °C 4.3 °C 1013.4 hPa Calm   17.7 km/h 97% 0 mm 69.00 W/m2
14:21 4.8 °C 4.3 °C 1013.8 hPa Calm   16.1 km/h 97% 0 mm 84.00 W/m2
14:26 4.8 °C 4.3 °C 1013.8 hPa Calm   1.6 km/h 97% 0 mm 58.00 W/m2
14:31 4.8 °C 4.3 °C 1013.8 hPa South 8 km/h 17.7 km/h 97% 0 mm 98.00 W/m2
14:36 4.8 °C 4.3 °C 1013.8 hPa Calm   14.5 km/h 97% 0 mm 120.00 W/m2
14:41 4.8 °C 4.3 °C 1013.8 hPa SSW 9.7 km/h 14.5 km/h 97% 0 mm 81.00 W/m2
14:46 4.8 °C 4.3 °C 1013.8 hPa SSW 4.8 km/h 16.1 km/h 97% 0 mm 107.00 W/m2
14:51 4.8 °C 4.4 °C 1013.8 hPa South 9.7 km/h 16.1 km/h 97% 0 mm 100.00 W/m2
14:56 4.8 °C 4.4 °C 1013.8 hPa SSW 11.3 km/h 22.5 km/h 97% 0 mm 121.00 W/m2
15:01 4.8 °C 4.3 °C 1013.8 hPa South 16.1 km/h 19.3 km/h 97% 0 mm 123.00 W/m2
15:06 4.8 °C 4.3 °C 1013.8 hPa SSW 12.9 km/h 19.3 km/h 97% 0 mm 137.00 W/m2
15:11 4.7 °C 4.3 °C 1013.8 hPa SSW 11.3 km/h 17.7 km/h 97% 0 mm 93.00 W/m2
15:16 4.7 °C 4.2 °C 1013.8 hPa Calm   16.1 km/h 97% 0 mm 116.00 W/m2
15:21 4.7 °C 4.2 °C 1013.8 hPa SSW 4.8 km/h 16.1 km/h 97% 0 mm 97.00 W/m2
15:26 4.7 °C 4.2 °C 1014.1 hPa SSW 1.6 km/h 12.9 km/h 97% 0 mm 90.00 W/m2
15:31 4.7 °C 4.2 °C 1014.1 hPa SSW 11.3 km/h 11.3 km/h 97% 0 mm 114.00 W/m2
15:36 4.7 °C 4.2 °C 1014.1 hPa SSE 11.3 km/h 14.5 km/h 97% 0 mm 60.00 W/m2
15:41 4.7 °C 4.2 °C 1014.1 hPa Calm     97% 0 mm 35.00 W/m2
15:46 4.7 °C 4.2 °C 1014.1 hPa Calm     97% 0 mm 69.00 W/m2
15:51 4.6 °C 4.2 °C 1014.1 hPa South 12.9 km/h 14.5 km/h 97% 0 mm 47.00 W/m2
15:56 4.6 °C 4.2 °C 1014.1 hPa SSW 12.9 km/h 12.9 km/h 97% 0 mm 74.00 W/m2
16:01 4.6 °C 4.2 °C 1014.1 hPa SSE 12.9 km/h 20.9 km/h 97% 0 mm 54.00 W/m2
16:06 4.6 °C 4.1 °C 1014.1 hPa South 8 km/h 9.7 km/h 97% 0 mm 49.00 W/m2
16:11 4.6 °C 4.1 °C 1014.1 hPa Calm     97% 0 mm 23.00 W/m2
16:16 4.5 °C 4.1 °C 1014.1 hPa SSW 9.7 km/h 12.9 km/h 97% 0 mm 32.00 W/m2
16:21 4.4 °C 4 °C 1014.1 hPa South 8 km/h 9.7 km/h 97% 0 mm 33.00 W/m2
16:26 4.4 °C 4 °C 1014.1 hPa South 9.7 km/h 11.3 km/h 97% 0 mm 23.00 W/m2
16:31 4.4 °C 3.9 °C 1014.4 hPa SSW 3.2 km/h 8 km/h 97% 0 mm 12.00 W/m2
16:36 4.3 °C 3.9 °C 1014.4 hPa South 3.2 km/h 4.8 km/h 97% 0 mm 7.00 W/m2
16:41 4.3 °C 3.8 °C 1014.4 hPa South 9.7 km/h 16.1 km/h 97% 0 mm 9.00 W/m2
16:46 4.3 °C 3.8 °C 1014.1 hPa SSE 11.3 km/h 16.1 km/h 97% 0 mm 12.00 W/m2
16:51 4.3 °C 3.8 °C 1014.1 hPa South 12.9 km/h 14.5 km/h 97% 0 mm 7.00 W/m2
16:56 4.3 °C 3.8 °C 1014.4 hPa South 12.9 km/h 19.3 km/h 97% 0 mm 0.00 W/m2
17:01 4.3 °C 3.8 °C 1014.4 hPa SSE 14.5 km/h 17.7 km/h 97% 0 mm 0.00 W/m2
17:06 4.2 °C 3.8 °C 1014.1 hPa South 6.4 km/h 8 km/h 97% 0 mm 0.00 W/m2
17:11 4.2 °C 3.8 °C 1014.4 hPa SSE 3.2 km/h 14.5 km/h 97% 0 mm 0.00 W/m2
17:16 4.2 °C 3.7 °C 1014.4 hPa SE 6.4 km/h 12.9 km/h 97% 0 mm 0.00 W/m2
17:21 4.2 °C 3.7 °C 1014.4 hPa South 16.1 km/h 17.7 km/h 97% 0 mm 0.00 W/m2
17:27 4.2 °C 3.7 °C 1014.4 hPa South 8 km/h 16.1 km/h 97% 0 mm 0.00 W/m2
17:32 4.2 °C 3.7 °C 1014.4 hPa South 11.3 km/h 17.7 km/h 97% 0 mm 0.00 W/m2
17:37 4.1 °C 3.6 °C 1014.4 hPa SSE 3.2 km/h 9.7 km/h 97% 0 mm 0.00 W/m2
17:42 4.1 °C 3.6 °C 1014.4 hPa Calm     97% 0 mm 0.00 W/m2
17:47 4.1 °C 3.6 °C 1014.4 hPa South 1.6 km/h 11.3 km/h 97% 0 mm 0.00 W/m2
17:52 4.1 °C 3.6 °C 1014.4 hPa Calm   6.4 km/h 97% 0 mm 0.00 W/m2
17:57 4 °C 3.4 °C 1014.4 hPa South 8 km/h 8 km/h 96% 0 mm 0.00 W/m2
18:02 4 °C 3.4 °C 1014.8 hPa SSE 11.3 km/h 16.1 km/h 96% 0 mm 0.00 W/m2
18:07 3.9 °C 3.4 °C 1014.4 hPa SSW 4.8 km/h 8 km/h 96% 0 mm 0.00 W/m2
18:12 3.9 °C 3.4 °C 1014.8 hPa SSE 8 km/h 11.3 km/h 96% 0 mm 0.00 W/m2
18:17 3.9 °C 3.4 °C 1014.8 hPa South 9.7 km/h 11.3 km/h 96% 0 mm 0.00 W/m2
18:22 3.9 °C 3.4 °C 1014.8 hPa South 11.3 km/h 11.3 km/h 96% 0 mm 0.00 W/m2
18:27 3.9 °C 3.4 °C 1014.8 hPa South 11.3 km/h 11.3 km/h 96% 0 mm 0.00 W/m2
18:32 3.9 °C 3.3 °C 1014.8 hPa SSE 6.4 km/h 12.9 km/h 96% 0 mm 0.00 W/m2
18:37 3.9 °C 3.3 °C 1014.8 hPa Calm     96% 0 mm 0.00 W/m2
18:42 3.8 °C 3.3 °C 1014.8 hPa SSE 6.4 km/h 14.5 km/h 96% 0 mm 0.00 W/m2
18:47 3.8 °C 3.3 °C 1014.8 hPa SE 8 km/h 17.7 km/h 96% 0 mm 0.00 W/m2
18:52 3.8 °C 3.3 °C 1014.4 hPa SE 3.2 km/h 12.9 km/h 96% 0 mm 0.00 W/m2
18:57 3.8 °C 3.2 °C 1014.4 hPa Calm     96% 0 mm 0.00 W/m2
19:02 3.8 °C 3.2 °C 1014.4 hPa SSE 8 km/h 11.3 km/h 96% 0 mm 0.00 W/m2
19:07 3.7 °C 3.1 °C 1014.8 hPa SSE 1.6 km/h 8 km/h 96% 0 mm 0.00 W/m2
19:12 3.7 °C 3.1 °C 1014.4 hPa Calm     96% 0 mm 0.00 W/m2
19:17 3.7 °C 3.1 °C 1014.4 hPa SSE 3.2 km/h 6.4 km/h 96% 0 mm 0.00 W/m2
19:22 3.7 °C 3.1 °C 1014.4 hPa Calm   1.6 km/h 96% 0 mm 0.00 W/m2
19:27 3.7 °C 3.1 °C 1014.4 hPa Calm     96% 0 mm 0.00 W/m2
19:32 3.7 °C 3.1 °C 1014.4 hPa Calm     96% 0 mm 0.00 W/m2
19:37 3.7 °C 3.1 °C 1014.4 hPa Calm     96% 0 mm 0.00 W/m2
19:42 3.7 °C 3.1 °C 1014.4 hPa Calm     96% 0 mm 0.00 W/m2
19:47 3.7 °C 3.1 °C 1014.4 hPa Calm     96% 0 mm 0.00 W/m2
19:52 3.7 °C 3.1 °C 1014.8 hPa Calm     96% 0 mm 0.00 W/m2
19:57 3.7 °C 3.1 °C 1014.8 hPa Calm     96% 0 mm 0.00 W/m2
20:02 3.7 °C 3.1 °C 1014.8 hPa Calm     96% 0 mm 0.00 W/m2
20:07 3.6 °C 3.1 °C 1014.8 hPa Calm     96% 0 mm 0.00 W/m2
20:12 3.6 °C 3.1 °C 1014.8 hPa Calm     96% 0 mm 0.00 W/m2
20:17 3.6 °C 3.1 °C 1014.8 hPa SSE 8 km/h 14.5 km/h 96% 0 mm 0.00 W/m2
20:22 3.6 °C 3.1 °C 1014.8 hPa South 11.3 km/h 12.9 km/h 96% 0 mm 0.00 W/m2
20:27 3.6 °C 3 °C 1015.1 hPa SSE 6.4 km/h 12.9 km/h 96% 0 mm 0.00 W/m2
20:32 3.6 °C 3 °C 1015.1 hPa SSE 9.7 km/h 12.9 km/h 96% 0 mm 0.00 W/m2
20:37 3.6 °C 3 °C 1015.1 hPa SSE 6.4 km/h 11.3 km/h 96% 0 mm 0.00 W/m2
20:42 3.5 °C 2.9 °C 1015.1 hPa SSE 9.7 km/h 11.3 km/h 96% 0 mm 0.00 W/m2
20:47 3.5 °C 2.9 °C 1014.8 hPa SSE 3.2 km/h 8 km/h 96% 0 mm 0.00 W/m2
20:52 3.5 °C 2.9 °C 1014.8 hPa SSE 9.7 km/h 14.5 km/h 96% 0 mm 0.00 W/m2
20:57 3.5 °C 2.9 °C 1014.8 hPa SSE 8 km/h 12.9 km/h 96% 0 mm 0.00 W/m2
21:02 3.5 °C 2.9 °C 1014.8 hPa SSE 1.6 km/h 14.5 km/h 96% 0 mm 0.00 W/m2
21:07 3.5 °C 2.9 °C 1014.8 hPa SSE 6.4 km/h 14.5 km/h 96% 0 mm 0.00 W/m2
21:12 3.5 °C 2.9 °C 1014.8 hPa Calm   14.5 km/h 96% 0 mm 0.00 W/m2
21:17 3.4 °C 2.9 °C 1014.8 hPa SSE 9.7 km/h 14.5 km/h 96% 0 mm 0.00 W/m2
21:22 3.4 °C 2.9 °C 1014.8 hPa Calm   9.7 km/h 96% 0 mm 0.00 W/m2
21:28 3.4 °C 2.8 °C 1014.8 hPa SSE 3.2 km/h 12.9 km/h 96% 0 mm 0.00 W/m2
21:33 3.3 °C 2.8 °C 1014.8 hPa Calm     96% 0 mm 0.00 W/m2
21:38 3.3 °C 2.7 °C 1014.8 hPa Calm     96% 0 mm 0.00 W/m2
21:43 3.2 °C 2.7 °C 1014.8 hPa Calm     96% 0 mm 0.00 W/m2
21:48 3.2 °C 2.6 °C 1014.8 hPa Calm   8 km/h 96% 0 mm 0.00 W/m2
21:53 3.1 °C 2.6 °C 1014.8 hPa Calm     96% 0 mm 0.00 W/m2
21:58 3.1 °C 2.5 °C 1014.8 hPa Calm     96% 0 mm 0.00 W/m2
22:03 3 °C 2.4 °C 1014.8 hPa SE 6.4 km/h 11.3 km/h 96% 0 mm 0.00 W/m2
22:08 2.9 °C 2.4 °C 1014.8 hPa ESE 1.6 km/h 11.3 km/h 96% 0 mm 0.00 W/m2
22:13 2.9 °C 2.3 °C 1014.4 hPa Calm   1.6 km/h 96% 0 mm 0.00 W/m2
22:18 2.9 °C 2.3 °C 1014.4 hPa Calm     96% 0 mm 0.00 W/m2
22:23 2.9 °C 2.3 °C 1014.4 hPa Calm     96% 0 mm 0.00 W/m2
22:28 2.8 °C 2.3 °C 1014.4 hPa Calm     96% 0 mm 0.00 W/m2
22:33 2.8 °C 2.3 °C 1014.4 hPa Calm     96% 0 mm 0.00 W/m2
22:38 2.8 °C 2.3 °C 1014.4 hPa Calm     96% 0 mm 0.00 W/m2
22:43 2.8 °C 2.3 °C 1014.4 hPa Calm     96% 0 mm 0.00 W/m2
22:48 2.8 °C 2.2 °C 1014.4 hPa Calm     96% 0 mm 0.00 W/m2
22:53 2.8 °C 2.2 °C 1014.4 hPa ESE 11.3 km/h 17.7 km/h 96% 0 mm 0.00 W/m2
22:58 2.8 °C 2.2 °C 1014.1 hPa Calm   12.9 km/h 96% 0 mm 0.00 W/m2
23:03 2.8 °C 2.2 °C 1014.1 hPa Calm   8 km/h 96% 0 mm 0.00 W/m2
23:08 2.7 °C 2.2 °C 1014.4 hPa ESE 8 km/h 19.3 km/h 96% 0 mm 0.00 W/m2
23:13 2.7 °C 2.2 °C 1014.4 hPa ESE 3.2 km/h 14.5 km/h 96% 0 mm 0.00 W/m2
23:18 2.7 °C 2.1 °C 1014.4 hPa Calm   6.4 km/h 96% 0 mm 0.00 W/m2
23:23 2.6 °C 2.1 °C 1014.4 hPa Calm   11.3 km/h 96% 0 mm 0.00 W/m2
23:28 2.6 °C 2 °C 1014.4 hPa Calm   8 km/h 96% 0 mm 0.00 W/m2
23:33 2.5 °C 1.9 °C 1014.4 hPa Calm   6.4 km/h 96% 0 mm 0.00 W/m2
23:38 2.4 °C 1.9 °C 1014.4 hPa ESE 8 km/h 14.5 km/h 96% 0 mm 0.00 W/m2
23:43 2.4 °C 1.8 °C 1014.4 hPa ESE 1.6 km/h 14.5 km/h 96% 0 mm 0.00 W/m2
23:48 2.3 °C 1.8 °C 1014.4 hPa Calm   6.4 km/h 96% 0 mm 0.00 W/m2
23:53 2.2 °C 1.7 °C 1014.4 hPa ESE 11.3 km/h 11.3 km/h 96% 0 mm 0.00 W/m2
23:58 2.2 °C 1.6 °C 1014.4 hPa ESE 6.4 km/h 14.5 km/h 96% 0 mm 0.00 W/m2
Foresthill Weather
 WU-history PHP script courtesy of   Juneau County Weather.
powered by Cumulus v1.9.3 (1059)
Ambient Weather VWS v14.00
Top Contact Website Map Copyright © 2007 - 2018 Foresthillweather.com Never base important decisions on this or any weather information obtained from the Internet